Time;durP1;ratioP1;P1;durP2;ratioP2;P2;SDS_P1;SDS_P2;PMS_P1;PMS_P2;Temp;Humidity;BMP_temperature;BMP_pressure;BME280_temperature;BME280_humidity;BME280_pressure;Samples;Min_cycle;Max_cycle;Signal;HPM_P1;HPM_P2
2021/05/05 00:00:32;;;;;;;2.10;2.00;;;8.10;99.90;;;;;;5035220;28;20170;-93
2021/05/05 00:03:06;;;;;;;4.80;2.90;;;8.10;99.90;;;;;;5035100;28;20199;-92
2021/05/05 00:05:38;;;;;;;4.53;2.07;;;8.10;99.90;;;;;;5035084;28;20539;-94
2021/05/05 00:08:04;;;;;;;2.77;2.30;;;8.20;99.90;;;;;;5035402;28;20174;-92
2021/05/05 00:10:31;;;;;;;3.67;2.63;;;8.20;99.90;;;;;;5034816;28;20308;-93
2021/05/05 00:13:06;;;;;;;3.07;2.27;;;8.20;99.90;;;;;;5034285;28;20276;-93
2021/05/05 00:15:58;;;;;;;4.97;2.60;;;8.20;99.90;;;;;;5034788;28;20178;-91
2021/05/05 00:18:37;;;;;;;3.53;2.40;;;8.20;99.90;;;;;;5035161;28;20175;-91
2021/05/05 00:21:09;;;;;;;3.20;2.17;;;8.30;99.90;;;;;;5035216;28;20162;-92
2021/05/05 00:23:53;;;;;;;4.53;2.20;;;8.30;99.90;;;;;;5034893;28;20198;-93
2021/05/05 00:26:50;;;;;;;2.97;2.30;;;8.30;99.90;;;;;;5034787;28;20198;-91
2021/05/05 00:29:19;;;;;;;6.97;2.33;;;8.30;99.90;;;;;;5034912;28;20190;-92
2021/05/05 00:31:49;;;;;;;3.03;2.20;;;8.30;99.90;;;;;;5034816;28;20198;-92
2021/05/05 00:34:48;;;;;;;3.33;2.23;;;8.30;99.90;;;;;;5034593;28;20166;-92
2021/05/05 00:37:43;;;;;;;2.57;2.27;;;8.30;99.90;;;;;;5034526;28;20217;-92
2021/05/05 00:40:25;;;;;;;4.87;2.30;;;8.30;99.90;;;;;;5034717;28;20261;-93
2021/05/05 00:43:07;;;;;;;3.17;2.20;;;8.30;99.90;;;;;;5034535;28;20565;-92
2021/05/05 00:45:35;;;;;;;2.20;1.83;;;8.40;99.90;;;;;;5034469;28;20654;-93
2021/05/05 00:48:10;;;;;;;3.30;1.90;;;8.40;99.90;;;;;;5034364;28;20265;-92
2021/05/05 00:50:39;;;;;;;2.00;1.77;;;8.30;99.90;;;;;;5034466;28;20167;-91
2021/05/05 00:53:42;;;;;;;4.20;1.70;;;8.30;99.90;;;;;;5034207;28;20201;-92
2021/05/05 00:56:28;;;;;;;2.90;1.80;;;8.40;99.90;;;;;;5034150;28;20224;-94
2021/05/05 00:59:13;;;;;;;2.27;1.50;;;8.30;99.90;;;;;;5034370;28;20676;-92
2021/05/05 01:01:54;;;;;;;2.63;1.43;;;8.30;99.90;;;;;;5034245;28;20277;-92
2021/05/05 01:04:29;;;;;;;3.60;1.70;;;8.30;99.90;;;;;;5035472;28;20246;-91
2021/05/05 01:07:12;;;;;;;1.70;1.60;;;8.30;99.90;;;;;;5034232;28;20182;-94
2021/05/05 01:09:49;;;;;;;3.27;1.60;;;8.30;99.90;;;;;;5034245;28;20166;-92
2021/05/05 01:12:23;;;;;;;4.63;1.50;;;8.30;99.90;;;;;;5030785;28;20225;-93
2021/05/05 01:15:00;;;;;;;2.13;1.57;;;8.30;99.90;;;;;;5067015;28;20266;-93
2021/05/05 01:17:28;;;;;;;5.00;1.70;;;8.30;99.90;;;;;;5033862;28;20174;-92
2021/05/05 01:19:55;;;;;;;2.40;1.27;;;8.20;99.90;;;;;;5033955;28;20242;-91
2021/05/05 01:22:29;;;;;;;1.73;1.20;;;8.20;99.90;;;;;;5033697;28;20213;-92
2021/05/05 01:25:05;;;;;;;3.47;1.47;;;8.20;99.90;;;;;;5033397;28;20233;-93
2021/05/05 01:27:40;;;;;;;4.10;1.60;;;8.20;99.90;;;;;;5033681;28;20181;-92
2021/05/05 01:30:08;;;;;;;3.30;1.67;;;8.20;99.90;;;;;;5440170;23;20238;-93
2021/05/05 01:32:35;;;;;;;3.63;1.57;;;8.20;99.90;;;;;;5033140;28;20206;-92
2021/05/05 01:35:04;;;;;;;4.13;1.60;;;8.20;99.90;;;;;;5033467;28;20171;-94
2021/05/05 01:37:34;;;;;;;4.03;1.63;;;8.20;99.90;;;;;;5033423;28;20167;-92
2021/05/05 01:40:00;;;;;;;3.00;1.50;;;8.20;99.90;;;;;;5033435;28;20175;-93
2021/05/05 01:42:26;;;;;;;3.40;1.40;;;8.20;99.90;;;;;;5033002;28;20712;-91
2021/05/05 01:44:51;;;;;;;4.63;1.37;;;8.10;99.90;;;;;;5033138;28;20195;-91
2021/05/05 01:47:17;;;;;;;2.47;1.50;;;8.10;99.90;;;;;;5033165;28;20221;-93
2021/05/05 01:49:48;;;;;;;1.60;1.27;;;8.10;99.90;;;;;;5033237;28;20162;-92
2021/05/05 01:52:16;;;;;;;3.17;1.50;;;8.10;99.90;;;;;;5033041;28;20286;-91
2021/05/05 01:54:43;;;;;;;3.17;1.63;;;8.10;99.90;;;;;;5033034;28;20225;-92
2021/05/05 01:57:35;;;;;;;3.33;1.40;;;8.10;99.90;;;;;;5033322;28;20170;-93
2021/05/05 02:00:04;;;;;;;3.37;1.40;;;8.10;99.90;;;;;;5033131;28;20171;-92
2021/05/05 02:02:31;;;;;;;3.63;1.50;;;8.10;99.90;;;;;;5032475;28;20202;-94
2021/05/05 02:04:57;;;;;;;2.83;1.50;;;8.10;99.90;;;;;;5032826;28;20277;-92
2021/05/05 02:07:23;;;;;;;6.43;1.77;;;8.10;99.90;;;;;;5033010;28;20162;-93
2021/05/05 02:09:49;;;;;;;4.40;1.80;;;8.00;99.90;;;;;;5032720;28;20166;-92
2021/05/05 02:12:16;;;;;;;6.60;1.90;;;8.00;99.90;;;;;;5032958;28;20205;-92
2021/05/05 02:14:43;;;;;;;3.00;1.83;;;8.00;99.90;;;;;;5032379;28;20197;-93
2021/05/05 02:17:09;;;;;;;4.37;1.40;;;8.00;99.90;;;;;;5032683;28;20217;-91
2021/05/05 02:19:35;;;;;;;3.07;1.70;;;7.90;99.90;;;;;;5033087;28;20645;-91
2021/05/05 02:22:01;;;;;;;2.73;1.70;;;7.90;99.90;;;;;;5032640;28;20199;-91
2021/05/05 02:24:27;;;;;;;7.10;1.80;;;7.90;99.90;;;;;;5032559;28;20583;-91
2021/05/05 02:26:52;;;;;;;4.50;2.00;;;7.80;99.90;;;;;;5032700;28;20159;-91
2021/05/05 02:29:18;;;;;;;4.00;2.00;;;7.80;99.90;;;;;;5032950;28;20162;-92
2021/05/05 02:31:44;;;;;;;3.93;2.00;;;7.70;99.90;;;;;;5032480;28;20272;-93
2021/05/05 02:34:11;;;;;;;2.63;1.90;;;7.70;99.90;;;;;;5032792;28;20666;-93
2021/05/05 02:36:37;;;;;;;2.83;1.93;;;7.70;99.90;;;;;;5032737;28;20269;-91
2021/05/05 02:39:06;;;;;;;3.40;1.73;;;7.70;99.90;;;;;;5036671;28;20179;-92
2021/05/05 02:41:33;;;;;;;2.27;1.70;;;7.70;99.90;;;;;;5036350;28;20167;-91
2021/05/05 02:43:58;;;;;;;5.20;1.80;;;7.70;99.90;;;;;;5036483;28;20253;-92
2021/05/05 02:46:25;;;;;;;3.53;2.17;;;7.70;99.90;;;;;;5036244;28;20333;-92
2021/05/05 02:48:51;;;;;;;5.17;1.93;;;7.70;99.90;;;;;;5036338;28;20159;-91
2021/05/05 02:51:17;;;;;;;2.33;1.90;;;7.70;99.90;;;;;;5036088;28;20196;-91
2021/05/05 02:53:43;;;;;;;3.33;2.20;;;7.60;99.90;;;;;;5036054;28;20623;-91
2021/05/05 02:56:08;;;;;;;6.13;2.17;;;7.60;99.90;;;;;;5036328;28;20259;-92
2021/05/05 02:58:34;;;;;;;3.80;2.00;;;7.60;99.90;;;;;;5037303;28;20167;-91
2021/05/05 03:01:00;;;;;;;3.03;1.87;;;7.60;99.90;;;;;;5036102;28;20166;-93
2021/05/05 03:03:25;;;;;;;3.60;2.20;;;7.60;99.90;;;;;;5036032;28;20568;-90
2021/05/05 03:05:51;;;;;;;4.73;2.20;;;7.70;99.90;;;;;;5035923;28;20199;-92
2021/05/05 03:08:18;;;;;;;6.60;2.40;;;7.70;99.90;;;;;;5036135;28;20169;-92
2021/05/05 03:10:47;;;;;;;2.97;1.90;;;7.60;99.90;;;;;;5036197;28;20386;-94
2021/05/05 03:13:13;;;;;;;3.27;2.13;;;7.60;99.90;;;;;;5036295;28;20245;-92
2021/05/05 03:15:39;;;;;;;5.07;2.27;;;7.60;99.90;;;;;;5035930;28;20561;-92
2021/05/05 03:18:05;;;;;;;3.20;1.80;;;7.70;99.90;;;;;;5035938;28;20217;-93
2021/05/05 03:20:31;;;;;;;2.80;2.33;;;7.60;99.90;;;;;;5035757;28;20261;-93
2021/05/05 03:22:58;;;;;;;4.63;2.10;;;7.70;99.90;;;;;;5035788;28;20246;-92
2021/05/05 03:25:24;;;;;;;5.53;2.33;;;7.60;99.90;;;;;;5035807;28;20692;-93
2021/05/05 03:27:52;;;;;;;3.33;2.23;;;7.70;99.90;;;;;;5035478;28;20225;-94
2021/05/05 03:30:19;;;;;;;6.13;2.60;;;7.60;99.90;;;;;;5035511;28;20251;-92
2021/05/05 03:32:45;;;;;;;4.83;2.43;;;7.60;99.90;;;;;;5035607;28;20313;-91
2021/05/05 03:35:11;;;;;;;4.67;2.17;;;7.60;99.90;;;;;;5035560;28;20206;-91
2021/05/05 03:37:37;;;;;;;2.67;2.20;;;7.60;99.90;;;;;;5035616;28;20626;-91
2021/05/05 03:40:04;;;;;;;2.97;2.20;;;7.50;99.90;;;;;;5035587;28;20270;-92
2021/05/05 03:42:31;;;;;;;5.57;2.20;;;7.50;99.90;;;;;;5035299;28;20563;-93
2021/05/05 03:44:58;;;;;;;2.43;2.23;;;7.60;99.90;;;;;;5035521;28;20186;-91
2021/05/05 03:47:23;;;;;;;2.60;2.40;;;7.50;99.90;;;;;;5034842;28;20174;-93
2021/05/05 03:49:49;;;;;;;4.90;2.33;;;7.50;99.90;;;;;;5035175;28;20171;-91
2021/05/05 03:52:15;;;;;;;3.60;2.47;;;7.50;99.90;;;;;;5035253;28;20265;-92
2021/05/05 03:54:41;;;;;;;2.97;2.40;;;7.50;99.90;;;;;;5035233;28;20253;-92
2021/05/05 03:57:06;;;;;;;3.67;2.50;;;7.50;99.90;;;;;;5035203;28;20622;-91
2021/05/05 03:59:33;;;;;;;4.37;2.30;;;7.50;99.90;;;;;;5035221;28;20189;-91
2021/05/05 04:01:59;;;;;;;4.23;2.60;;;7.50;99.90;;;;;;5034830;28;20624;-90
2021/05/05 04:04:25;;;;;;;4.93;2.60;;;7.50;99.90;;;;;;5034911;28;20639;-92
2021/05/05 04:06:50;;;;;;;4.27;2.70;;;7.50;99.90;;;;;;5034811;28;20501;-92
2021/05/05 04:09:16;;;;;;;5.40;2.83;;;7.50;99.90;;;;;;5035110;28;20205;-93
2021/05/05 04:11:42;;;;;;;2.60;2.40;;;7.50;99.90;;;;;;5034659;28;20201;-92
2021/05/05 04:14:08;;;;;;;3.50;2.87;;;7.50;99.90;;;;;;5034688;28;20179;-93
2021/05/05 04:16:35;;;;;;;3.27;2.53;;;7.50;99.90;;;;;;5034973;28;20197;-92
2021/05/05 04:19:01;;;;;;;3.03;2.60;;;7.50;99.90;;;;;;5034578;28;20186;-92
2021/05/05 04:21:27;;;;;;;2.77;2.50;;;7.50;99.90;;;;;;5034739;28;20228;-93
2021/05/05 04:23:53;;;;;;;4.50;2.40;;;7.50;99.90;;;;;;5034738;28;20251;-93
2021/05/05 04:26:19;;;;;;;2.90;2.40;;;7.50;99.90;;;;;;5034503;28;20251;-93
2021/05/05 04:28:45;;;;;;;3.73;2.40;;;7.50;99.90;;;;;;5034621;28;20173;-91
2021/05/05 04:31:11;;;;;;;5.27;2.60;;;7.50;99.90;;;;;;5034166;28;20229;-91
2021/05/05 04:33:39;;;;;;;2.50;2.30;;;7.50;99.90;;;;;;5034462;28;20277;-93
2021/05/05 04:36:04;;;;;;;3.97;2.17;;;7.40;99.90;;;;;;5034822;28;20179;-89
2021/05/05 04:38:31;;;;;;;2.40;2.20;;;7.50;99.90;;;;;;5034768;28;20205;-91
2021/05/05 04:40:57;;;;;;;3.70;2.40;;;7.50;99.90;;;;;;5034508;28;20186;-93
2021/05/05 04:43:23;;;;;;;5.27;2.20;;;7.50;99.90;;;;;;5034344;28;20281;-92
2021/05/05 04:45:48;;;;;;;5.13;2.50;;;7.60;99.90;;;;;;5034508;28;20252;-92
2021/05/05 04:48:14;;;;;;;4.13;2.40;;;7.60;99.90;;;;;;5034491;28;20182;-92
2021/05/05 04:50:40;;;;;;;2.40;2.00;;;7.60;99.90;;;;;;5034259;28;20167;-91
2021/05/05 04:53:07;;;;;;;4.70;2.40;;;7.60;99.90;;;;;;5034544;28;20264;-93
2021/05/05 04:55:33;;;;;;;4.33;2.30;;;7.50;99.90;;;;;;5040966;28;20178;-92
2021/05/05 04:57:59;;;;;;;5.47;2.10;;;7.60;99.90;;;;;;5048678;28;20170;-91
2021/05/05 05:00:31;;;;;;;5.50;2.53;;;7.50;99.90;;;;;;5045609;28;20249;-92
2021/05/05 05:03:03;;;;;;;4.20;2.20;;;7.50;99.90;;;;;;5035203;28;20193;-92
2021/05/05 05:05:37;;;;;;;3.53;1.93;;;7.50;99.90;;;;;;5045650;28;20194;-93
2021/05/05 05:08:03;;;;;;;5.43;2.20;;;7.50;99.90;;;;;;5040104;28;20220;-93
2021/05/05 05:10:30;;;;;;;3.27;2.10;;;7.50;99.90;;;;;;5036650;28;20167;-93
2021/05/05 05:13:19;;;;;;;5.63;2.00;;;7.50;99.90;;;;;;5037889;28;20201;-94
2021/05/05 05:15:45;;;;;;;4.40;2.10;;;7.70;99.90;;;;;;5014342;28;20194;-90
2021/05/05 05:18:34;;;;;;;4.93;2.20;;;7.70;99.90;;;;;;5032134;28;20165;-93
2021/05/05 05:21:17;;;;;;;4.23;2.30;;;7.90;99.90;;;;;;5056156;28;20190;-94
2021/05/05 05:24:20;;;;;;;4.50;2.00;;;7.90;99.90;;;;;;5053946;28;20208;-93
2021/05/05 05:26:57;;;;;;;4.90;2.30;;;7.90;99.90;;;;;;5053878;28;20657;-91
2021/05/05 05:29:23;;;;;;;4.93;2.30;;;8.00;99.90;;;;;;5054028;28;20632;-94
2021/05/05 05:31:52;;;;;;;5.50;2.70;;;8.10;99.90;;;;;;5044316;28;20245;-90
2021/05/05 05:34:41;;;;;;;4.10;2.60;;;8.20;99.90;;;;;;5036280;28;20258;-93
2021/05/05 05:37:41;;;;;;;5.47;2.87;;;8.30;99.90;;;;;;5039984;28;20178;-93
2021/05/05 05:40:09;;;;;;;5.43;2.90;;;8.20;99.90;;;;;;5045730;28;20220;-90
2021/05/05 05:42:36;;;;;;;5.70;2.53;;;8.10;99.90;;;;;;5038412;28;20278;-93
2021/05/05 05:45:05;;;;;;;7.83;3.10;;;7.90;99.90;;;;;;5038906;28;20187;-93
2021/05/05 05:47:31;;;;;;;4.70;2.83;;;7.80;99.90;;;;;;5033431;28;20220;-91
2021/05/05 05:49:57;;;;;;;4.47;2.20;;;7.90;99.90;;;;;;5033337;28;20167;-93
2021/05/05 05:52:22;;;;;;;6.33;2.60;;;8.00;99.90;;;;;;5033349;28;20205;-92
2021/05/05 05:54:49;;;;;;;3.60;2.30;;;8.10;99.90;;;;;;5033525;28;20178;-92
2021/05/05 05:57:16;;;;;;;7.87;3.00;;;8.20;99.90;;;;;;5033182;28;20163;-93
2021/05/05 05:59:43;;;;;;;4.63;2.70;;;8.30;99.90;;;;;;5033352;28;20169;-94
2021/05/05 06:02:10;;;;;;;7.90;2.80;;;8.40;99.90;;;;;;5032851;28;20194;-93
2021/05/05 06:04:36;;;;;;;4.27;2.13;;;8.50;99.90;;;;;;5032941;28;20166;-93
2021/05/05 06:07:03;;;;;;;4.03;2.53;;;8.50;99.90;;;;;;5033586;28;20193;-93
2021/05/05 06:09:28;;;;;;;8.27;2.60;;;8.50;99.90;;;;;;5033679;28;20198;-92
2021/05/05 06:11:54;;;;;;;4.77;2.17;;;8.30;99.90;;;;;;5034345;28;20190;-91
2021/05/05 06:14:52;;;;;;;7.67;2.30;;;8.30;99.90;;;;;;5033147;28;20170;-92
2021/05/05 06:17:30;;;;;;;2.67;1.83;;;8.20;99.90;;;;;;5033204;28;20170;-94
2021/05/05 06:20:21;;;;;;;2.93;2.07;;;8.30;99.90;;;;;;5033057;28;20174;-90
2021/05/05 06:23:05;;;;;;;2.93;1.63;;;8.30;99.90;;;;;;5032992;28;20206;-92
2021/05/05 06:25:34;;;;;;;2.43;1.77;;;8.00;99.90;;;;;;5032901;28;20191;-91
2021/05/05 06:28:09;;;;;;;2.60;1.40;;;7.80;99.90;;;;;;5032937;28;20167;-91
2021/05/05 06:30:40;;;;;;;1.83;1.40;;;7.60;99.90;;;;;;5024947;28;20265;-91
2021/05/05 06:33:12;;;;;;;5.13;1.70;;;7.70;99.90;;;;;;5049715;28;20280;-90
2021/05/05 06:35:47;;;;;;;4.40;1.80;;;7.80;99.90;;;;;;5052801;28;20173;-94
2021/05/05 06:38:31;;;;;;;4.07;1.20;;;8.00;99.90;;;;;;5052930;28;20304;-91
2021/05/05 06:41:16;;;;;;;2.33;1.40;;;8.20;99.90;;;;;;5052943;28;20538;-93
2021/05/05 06:44:00;;;;;;;4.77;1.70;;;8.30;99.90;;;;;;5046492;28;20159;-90
2021/05/05 06:46:34;;;;;;;2.97;1.13;;;8.50;99.90;;;;;;5032599;28;20198;-90
2021/05/05 06:49:01;;;;;;;5.70;1.13;;;8.60;99.90;;;;;;5032383;28;20638;-94
2021/05/05 06:51:29;;;;;;;1.63;1.00;;;8.60;99.90;;;;;;5032446;28;20254;-92
2021/05/05 06:54:01;;;;;;;3.60;1.50;;;8.60;99.90;;;;;;5032757;28;20627;-90
2021/05/05 06:56:34;;;;;;;4.43;1.63;;;8.60;99.90;;;;;;5032688;28;20171;-90
2021/05/05 06:59:17;;;;;;;6.33;1.60;;;8.70;99.90;;;;;;5032687;28;20258;-92
2021/05/05 07:01:54;;;;;;;2.27;1.40;;;8.80;99.90;;;;;;5032580;28;20191;-92
2021/05/05 07:04:44;;;;;;;6.67;1.67;;;8.80;99.90;;;;;;5032687;28;20262;-91
2021/05/05 07:07:30;;;;;;;6.83;1.93;;;8.80;99.90;;;;;;5032499;28;20170;-91
2021/05/05 07:10:29;;;;;;;4.07;1.33;;;8.60;99.90;;;;;;5032667;28;20166;-90
2021/05/05 07:12:57;;;;;;;3.87;1.40;;;8.60;99.90;;;;;;5033794;28;20198;-90
2021/05/05 07:15:24;;;;;;;6.90;1.83;;;8.80;99.90;;;;;;5032712;28;20159;-90
2021/05/05 07:17:52;;;;;;;3.53;1.70;;;8.90;99.90;;;;;;5032727;28;20166;-93
2021/05/05 07:20:18;;;;;;;3.87;1.60;;;9.20;99.90;;;;;;5032715;28;20573;-91
2021/05/05 07:22:45;;;;;;;6.80;1.90;;;9.20;99.90;;;;;;5032746;28;20199;-94
2021/05/05 07:25:12;;;;;;;6.30;1.67;;;9.10;99.90;;;;;;5035992;28;20194;-94
2021/05/05 07:27:47;;;;;;;3.47;1.47;;;8.90;99.90;;;;;;5048867;28;20541;-92
2021/05/05 07:30:25;;;;;;;4.63;1.90;;;8.80;99.90;;;;;;5055910;28;20166;-94
2021/05/05 07:33:02;;;;;;;4.03;1.70;;;8.70;99.90;;;;;;5055637;28;20244;-91
2021/05/05 07:35:45;;;;;;;4.90;1.60;;;8.70;99.90;;;;;;5056091;28;20170;-91
2021/05/05 07:46:27;;;;;;;3.03;1.50;;;8.60;99.90;;;;;;5056852;28;20638;-92
2021/05/05 07:49:03;;;;;;;4.40;1.37;;;8.60;99.90;;;;;;5055399;28;20166;-93
2021/05/05 07:51:53;;;;;;;7.40;1.70;;;8.70;99.90;;;;;;5055671;28;20162;-91
2021/05/05 07:55:11;;;;;;;2.80;1.23;;;8.80;99.90;;;;;;5055471;28;20158;-90
2021/05/05 07:57:42;;;;;;;5.17;1.50;;;9.00;99.90;;;;;;5055631;28;20166;-92
2021/05/05 08:00:16;;;;;;;3.60;1.70;;;9.10;99.90;;;;;;5051077;28;20210;-92
2021/05/05 08:02:45;;;;;;;4.63;1.60;;;9.00;99.90;;;;;;5015297;28;20245;-89
2021/05/05 08:05:14;;;;;;;2.60;1.30;;;8.80;99.90;;;;;;5015346;28;20195;-92
2021/05/05 08:07:40;;;;;;;2.83;1.17;;;8.70;99.90;;;;;;5015384;28;20175;-91
2021/05/05 08:10:09;;;;;;;6.73;1.60;;;8.70;99.90;;;;;;5015371;28;20163;-92
2021/05/05 08:12:43;;;;;;;9.40;1.70;;;8.80;99.90;;;;;;5015295;28;20562;-92
2021/05/05 08:15:15;;;;;;;3.67;1.20;;;8.80;99.90;;;;;;5015415;28;20167;-91
2021/05/05 08:17:42;;;;;;;6.43;1.40;;;8.80;99.90;;;;;;5015227;28;20210;-91
2021/05/05 08:20:10;;;;;;;5.40;1.43;;;9.00;99.90;;;;;;5015156;28;20650;-90
2021/05/05 08:22:53;;;;;;;7.17;1.60;;;9.00;99.90;;;;;;5014873;28;20203;-92
2021/05/05 08:25:27;;;;;;;5.23;1.47;;;8.90;99.90;;;;;;5015148;28;20558;-91
2021/05/05 08:27:55;;;;;;;4.20;1.30;;;8.80;99.90;;;;;;5015034;28;20170;-90
2021/05/05 08:30:38;;;;;;;9.27;2.27;;;8.80;99.90;;;;;;5015068;28;20254;-93
2021/05/05 08:33:06;;;;;;;9.47;1.60;;;8.70;99.90;;;;;;5014695;28;20277;-92
2021/05/05 08:35:44;;;;;;;5.30;1.40;;;8.90;99.90;;;;;;5013918;28;20164;-91
2021/05/05 08:38:22;;;;;;;9.97;1.80;;;9.20;99.90;;;;;;5014812;28;20602;-90
2021/05/05 08:40:49;;;;;;;8.03;1.60;;;9.30;99.90;;;;;;5014778;28;20195;-91
2021/05/05 08:43:22;;;;;;;7.30;2.10;;;9.30;99.90;;;;;;5014449;28;20226;-91
2021/05/05 08:45:50;;;;;;;8.03;1.90;;;9.30;99.90;;;;;;5014505;28;20658;-89
2021/05/05 08:48:28;;;;;;;5.57;1.90;;;9.20;99.90;;;;;;5014697;28;20175;-91
2021/05/05 08:51:10;;;;;;;4.87;1.83;;;9.20;99.90;;;;;;5014495;28;20262;-90
2021/05/05 08:53:49;;;;;;;5.67;1.27;;;9.30;99.90;;;;;;5014509;28;20626;-92
2021/05/05 08:56:22;;;;;;;8.87;1.73;;;9.50;99.90;;;;;;5013976;28;20237;-93
2021/05/05 08:59:09;;;;;;;4.47;1.50;;;9.50;99.90;;;;;;5014441;28;20175;-92
2021/05/05 09:01:42;;;;;;;5.60;1.43;;;9.50;99.90;;;;;;5014390;28;20182;-92
2021/05/05 09:04:20;;;;;;;6.70;1.67;;;9.50;99.90;;;;;;5014294;28;20163;-91
2021/05/05 09:07:18;;;;;;;4.63;1.70;;;9.30;99.90;;;;;;5014084;28;20689;-91
2021/05/05 09:09:45;;;;;;;9.40;1.67;;;9.20;99.90;;;;;;5014331;28;20183;-91
2021/05/05 09:12:25;;;;;;;5.10;1.60;;;9.50;99.90;;;;;;5014202;28;20203;-90
2021/05/05 09:15:01;;;;;;;11.07;2.10;;;9.70;99.90;;;;;;5013985;28;20163;-92
2021/05/05 09:17:34;;;;;;;5.57;1.73;;;9.80;99.90;;;;;;5015187;28;20619;-93
2021/05/05 09:20:31;;;;;;;4.97;1.10;;;9.90;99.90;;;;;;5013965;28;20529;-92
2021/05/05 09:23:01;;;;;;;8.67;2.27;;;10.00;99.90;;;;;;5015390;28;20210;-92
2021/05/05 09:25:29;;;;;;;9.40;1.57;;;10.30;99.90;;;;;;5013920;28;20271;-93
2021/05/05 09:28:17;;;;;;;7.90;2.07;;;10.40;99.90;;;;;;5014010;28;20191;-92
2021/05/05 09:31:20;;;;;;;5.30;1.63;;;10.40;99.50;;;;;;5013457;28;20163;-91
2021/05/05 09:34:10;;;;;;;6.03;1.70;;;10.30;99.30;;;;;;5012632;28;20191;-90
2021/05/05 09:37:03;;;;;;;11.23;1.70;;;10.40;99.90;;;;;;5013728;28;20214;-91
2021/05/05 09:39:35;;;;;;;8.73;1.60;;;10.60;99.70;;;;;;5012155;28;20183;-93
2021/05/05 09:42:15;;;;;;;8.77;1.60;;;10.80;98.30;;;;;;5013876;28;20226;-91
2021/05/05 09:44:59;;;;;;;6.03;1.63;;;10.60;97.80;;;;;;5013741;28;20167;-92
2021/05/05 09:47:47;;;;;;;7.90;1.80;;;10.60;98.80;;;;;;5013523;28;20185;-92
2021/05/05 09:50:44;;;;;;;4.70;1.50;;;10.60;99.40;;;;;;5013673;28;20224;-90
2021/05/05 09:53:25;;;;;;;6.00;1.50;;;10.50;99.70;;;;;;5013530;28;20217;-91
2021/05/05 09:55:56;;;;;;;8.93;1.70;;;10.70;99.60;;;;;;5013482;28;20178;-91
2021/05/05 09:58:24;;;;;;;8.50;1.60;;;10.80;98.70;;;;;;5013529;28;20187;-90
2021/05/05 10:01:21;;;;;;;7.37;1.80;;;10.90;98.50;;;;;;5013409;28;20561;-91
2021/05/05 10:03:53;;;;;;;7.60;1.50;;;11.10;98.70;;;;;;5013336;28;20182;-93
2021/05/05 10:06:47;;;;;;;9.13;1.53;;;11.20;96.80;;;;;;5016115;28;20224;-91
2021/05/05 10:09:18;;;;;;;6.67;1.43;;;11.20;96.40;;;;;;5034487;28;20209;-90
2021/05/05 10:11:48;;;;;;;5.10;1.70;;;11.30;96.20;;;;;;5032991;28;20244;-90
2021/05/05 10:14:20;;;;;;;8.07;1.93;;;11.30;95.70;;;;;;5033117;28;20646;-92
2021/05/05 10:17:01;;;;;;;5.80;1.30;;;11.10;95.50;;;;;;5033048;28;20536;-89
2021/05/05 10:19:34;;;;;;;5.40;1.57;;;10.80;96.90;;;;;;5033090;28;20175;-93
2021/05/05 10:22:06;;;;;;;11.57;1.57;;;10.70;96.90;;;;;;5032696;28;20198;-93
2021/05/05 10:24:58;;;;;;;4.60;1.23;;;10.40;97.80;;;;;;5032849;28;20194;-91
2021/05/05 10:27:25;;;;;;;7.10;1.53;;;10.20;98.60;;;;;;5033003;28;20206;-91
2021/05/05 10:30:18;;;;;;;8.50;1.93;;;10.20;99.90;;;;;;5032876;28;20199;-89
2021/05/05 10:33:07;;;;;;;5.43;1.63;;;10.50;99.90;;;;;;5026715;28;20222;-92
2021/05/05 10:35:38;;;;;;;6.43;1.80;;;10.70;99.90;;;;;;5032819;28;20186;-92
2021/05/05 10:38:31;;;;;;;4.23;1.17;;;11.00;99.90;;;;;;5032719;28;20221;-92
2021/05/05 10:41:10;;;;;;;8.03;1.97;;;11.20;99.90;;;;;;5032615;28;20197;-90
2021/05/05 10:44:02;;;;;;;9.77;1.63;;;11.20;99.90;;;;;;5032630;28;20686;-92
2021/05/05 10:46:43;;;;;;;16.90;2.40;;;11.30;99.70;;;;;;5032616;28;20244;-92
2021/05/05 10:49:28;;;;;;;24.20;1.73;;;11.40;98.70;;;;;;5032668;28;20171;-89
2021/05/05 10:51:59;;;;;;;9.83;1.90;;;11.10;97.70;;;;;;5032360;28;20217;-92
2021/05/05 10:55:04;;;;;;;15.90;2.10;;;10.90;97.80;;;;;;5032522;28;20642;-92
2021/05/05 10:57:32;;;;;;;5.90;1.83;;;10.90;98.10;;;;;;5032775;28;20213;-91
2021/05/05 10:59:59;;;;;;;5.27;1.80;;;11.10;98.40;;;;;;5036710;28;20542;-94
2021/05/05 11:02:59;;;;;;;8.90;2.00;;;11.30;98.70;;;;;;5036493;28;20195;-92
2021/05/05 11:09:23;;;;;;;14.10;1.90;;;11.60;97.60;;;;;;5037676;28;20158;-93
2021/05/05 11:11:54;;;;;;;11.40;1.90;;;11.50;96.80;;;;;;5036380;28;20202;-93
2021/05/05 11:14:52;;;;;;;8.10;1.80;;;11.60;98.70;;;;;;5036331;28;20261;-93
2021/05/05 11:17:30;;;;;;;5.03;1.80;;;11.60;97.20;;;;;;5033190;28;20221;-92
2021/05/05 11:20:04;;;;;;;18.37;2.20;;;11.30;96.60;;;;;;5037315;28;20163;-91
2021/05/05 11:22:45;;;;;;;20.77;2.10;;;10.90;96.00;;;;;;5036072;28;20256;-91
2021/05/05 11:25:27;;;;;;;18.27;2.00;;;10.80;95.90;;;;;;5036018;28;20201;-93
2021/05/05 11:28:12;;;;;;;10.70;1.50;;;11.00;95.90;;;;;;5035880;28;20510;-93
2021/05/05 11:30:42;;;;;;;10.47;1.53;;;11.10;95.60;;;;;;5035845;28;20623;-94
2021/05/05 11:33:19;;;;;;;5.43;1.33;;;11.00;95.30;;;;;;5032501;28;20230;-94
2021/05/05 11:35:45;;;;;;;5.03;1.73;;;10.90;95.50;;;;;;5037865;28;20220;-91
2021/05/05 11:38:19;;;;;;;11.50;1.63;;;10.90;95.90;;;;;;5035905;28;20175;-91
2021/05/05 11:41:01;;;;;;;17.37;1.57;;;10.90;95.90;;;;;;5035618;28;20174;-95
2021/05/05 11:43:35;;;;;;;11.77;1.80;;;11.00;95.20;;;;;;5035831;28;20218;-90
2021/05/05 11:46:04;;;;;;;3.17;1.27;;;11.00;95.10;;;;;;5035554;28;20745;-91
2021/05/05 11:48:33;;;;;;;6.87;1.60;;;11.10;95.10;;;;;;5035671;28;20202;-92
2021/05/05 11:51:14;;;;;;;7.63;1.50;;;11.30;95.40;;;;;;5035604;28;20586;-91
2021/05/05 11:53:40;;;;;;;6.97;1.93;;;11.20;95.80;;;;;;5035208;28;20237;-93
2021/05/05 11:56:21;;;;;;;6.20;2.00;;;11.20;95.60;;;;;;5035355;28;20202;-91
2021/05/05 11:58:57;;;;;;;7.20;1.90;;;11.50;95.90;;;;;;5035330;28;20201;-93
2021/05/05 12:01:33;;;;;;;6.60;1.30;;;11.60;96.00;;;;;;5034887;28;20601;-96
2021/05/05 12:04:21;;;;;;;6.43;1.40;;;11.70;95.40;;;;;;5035199;28;20619;-93
2021/05/05 12:06:59;;;;;;;9.87;1.83;;;11.90;95.10;;;;;;5035354;28;20207;-93
2021/05/05 12:09:27;;;;;;;6.97;1.40;;;12.10;94.10;;;;;;5035282;28;20175;-93
2021/05/05 12:12:28;;;;;;;5.00;1.60;;;12.00;94.90;;;;;;5034973;28;20293;-91
2021/05/05 12:15:06;;;;;;;5.20;1.43;;;11.70;94.10;;;;;;5034691;28;20225;-94
2021/05/05 12:17:52;;;;;;;7.30;1.43;;;11.50;95.20;;;;;;5034784;28;20209;-93
2021/05/05 12:20:19;;;;;;;11.90;1.87;;;11.60;96.40;;;;;;5035039;28;20550;-94
2021/05/05 12:22:54;;;;;;;17.57;2.30;;;11.70;96.90;;;;;;5034628;28;20253;-93
2021/05/05 12:25:27;;;;;;;9.73;1.53;;;11.90;95.60;;;;;;5035181;28;20198;-92
2021/05/05 12:28:15;;;;;;;11.60;1.70;;;11.70;95.10;;;;;;5034891;28;20166;-94
2021/05/05 12:30:50;;;;;;;30.60;1.70;;;11.50;95.00;;;;;;5035891;28;20251;-93
2021/05/05 12:33:41;;;;;;;5.90;1.30;;;11.40;95.50;;;;;;5034297;28;20325;-92
2021/05/05 12:36:23;;;;;;;7.80;1.27;;;11.30;94.80;;;;;;5035692;28;20186;-94
2021/05/05 12:39:02;;;;;;;11.53;1.47;;;11.30;95.60;;;;;;5032278;28;20639;-92
2021/05/05 12:41:43;;;;;;;7.90;1.40;;;11.40;96.10;;;;;;5034824;28;20213;-93
2021/05/05 12:44:12;;;;;;;4.23;1.10;;;11.40;96.40;;;;;;5034567;28;20257;-91
2021/05/05 12:46:58;;;;;;;18.67;2.23;;;11.50;97.00;;;;;;5034386;28;20285;-95
2021/05/05 12:49:28;;;;;;;13.13;1.33;;;11.60;96.80;;;;;;5034286;28;20233;-91
2021/05/05 12:51:55;;;;;;;5.30;1.20;;;11.50;95.80;;;;;;5034201;28;20198;-93
2021/05/05 12:54:28;;;;;;;7.63;1.30;;;11.50;96.00;;;;;;5034475;28;20166;-94
2021/05/05 12:56:54;;;;;;;10.33;1.43;;;11.50;96.50;;;;;;5033985;28;20167;-95
2021/05/05 12:59:29;;;;;;;12.27;1.17;;;11.40;97.00;;;;;;5035235;28;20246;-91
2021/05/05 13:02:09;;;;;;;7.83;2.10;;;11.40;97.00;;;;;;5034828;28;20232;-91
2021/05/05 13:04:43;;;;;;;15.53;1.77;;;11.30;97.20;;;;;;5033984;28;20213;-89
2021/05/05 13:07:28;;;;;;;6.40;0.80;;;11.30;96.20;;;;;;5033936;28;20670;-95
2021/05/05 13:10:11;;;;;;;11.17;0.87;;;11.40;95.60;;;;;;5033660;28;20180;-90
2021/05/05 13:32:36;;;;;;;3.07;0.90;;;11.50;98.50;;;;;;5035035;28;20286;-93
2021/05/05 13:35:22;;;;;;;2.87;0.63;;;11.30;98.80;;;;;;5034234;28;20568;-92
2021/05/05 13:38:04;;;;;;;3.47;0.90;;;11.30;99.60;;;;;;5034425;28;20171;-93
2021/05/05 13:40:34;;;;;;;1.70;0.60;;;11.30;99.80;;;;;;5034408;28;20181;-93
2021/05/05 13:43:06;;;;;;;7.47;0.90;;;11.30;99.40;;;;;;5033526;28;20570;-93
2021/05/05 13:45:35;;;;;;;8.10;1.03;;;11.30;99.00;;;;;;5033419;28;20201;-91
2021/05/05 13:48:12;;;;;;;11.03;1.60;;;11.40;99.70;;;;;;5033396;28;20171;-93
2021/05/05 13:50:39;;;;;;;2.83;1.23;;;11.30;99.70;;;;;;5033986;28;20170;-93
2021/05/05 13:53:05;;;;;;;16.40;1.50;;;11.10;99.90;;;;;;5033790;28;20285;-93
2021/05/05 13:55:31;;;;;;;5.97;1.37;;;11.00;99.90;;;;;;5033714;28;20261;-93
2021/05/05 13:57:56;;;;;;;2.70;1.10;;;10.90;99.90;;;;;;5033579;28;20650;-92
2021/05/05 14:00:23;;;;;;;3.63;1.10;;;11.00;99.90;;;;;;5033491;28;20265;-93